West Fort Ann, New York
Current Conditions -  °F | °C
As of 2:53 PM on Sunday 21 Dec 2014 (Local Time) from KGFL Reporting Station
Overcast Overcast  
Wind Chill: 23°   Ceiling: 3600
Heat Index: 28°   Visibility: 9mi
Dew Point: 22°   Wind: 5mph
Humidity: 78%   Direction: 70°ENE
Pressure: 30.32"   Gusts: NA
Location:  43.4639°N, 73.5204°W
Report Text: KGFL 211953Z AUTO 07004KT 9SM OVC036 M02/M06 A3032 RMK AO2 SLP279 T10221056
Loading
Personal Weather Stations






























Interactive Weather Map New forecast layout! Learn more

10-Day Weather Forecast

Advertisements
Track Severe Weather on mobile